Kezdőlap
METAR-TAF:

METAR-TAF

Repülőterek :

Dakar, Szenegál

földrajzi szélesség: 14-44N, földrajzi hosszúság: 017-30W, magasság: 27 m

Jelenlegi meteorológiai megfigyelések

A jelentés 1 órával és 4 perccel ezelõtt készült, 00:00 UTC
Északi szél 7 kt
Hőmérséklet 19°C
Páratartalom 94%
Légköri nyomás 1015 hPa
Látótávolság: 8000 m

METAR: GOOY 240000Z 36007KT 8000 NSC 19/18 Q1015 NOSIG

Idő: 01:04 (01:04 UTC)

Előrejelzés

A jelentés 1 órával és 34 perccel ezelõtt készült, 23:30 UTC
Az előrejelzés 24-én 00 óra UTC és 25-én 06 óra UTC között érvényes
Északi szél 10 kt
Látótávolság: 8000 m

TAF: GOOY 232330Z 2400/2506 36010KT 8000 NSC

Meteorológiai megfigyelések és előrejelzések több, mint 4000 repülőtéren (METAR és TAF jelentéseket).

A térképen piros és sárga pontok jelzik az elérhető meteorológiai állomásokat.

Mozgassa az egeret a pont fölött, hogy megjelenjen az állomás neve.

Azután kattintson az időjárási megfigyelések és előrejelzések megtekintéséhez.

A térkép megváltoztatása: kattintson a fekete keresztel jelölt zöld gombra ráközelítéshez, a vonallal jelölt zöld gombra távolításhoz, vagy a zöld nyilakra a szomszédos térképek eléréséhez.


METAR-TAF: